Time;durP1;ratioP1;P1;durP2;ratioP2;P2;SDS_P1;SDS_P2;PMS_P1;PMS_P2;Temp;Humidity;BMP_temperature;BMP_pressure;BME280_temperature;BME280_humidity;BME280_pressure;Samples;Min_cycle;Max_cycle;Signal;HPM_P1;HPM_P2
2023/03/02 00:00:26;;;;;;;37.17;19.87;;;-0.60;99.90;;;;;;4992756;28;20279;-84
2023/03/02 00:02:52;;;;;;;44.77;20.73;;;-0.80;99.90;;;;;;4994473;28;20200;-82
2023/03/02 00:05:17;;;;;;;45.97;20.90;;;-0.80;99.90;;;;;;4974472;28;20331;-79
2023/03/02 00:07:43;;;;;;;43.43;21.87;;;-0.80;99.90;;;;;;4987180;28;20182;-83
2023/03/02 00:10:09;;;;;;;48.63;22.60;;;-0.70;99.90;;;;;;4990733;28;20180;-82
2023/03/02 00:12:35;;;;;;;44.35;19.83;;;-0.70;99.90;;;;;;4978206;28;20176;-84
2023/03/02 00:15:00;;;;;;;45.90;22.87;;;-0.50;99.90;;;;;;4984348;23;20231;-87
2023/03/02 00:17:29;;;;;;;44.37;22.47;;;-0.70;99.90;;;;;;4976503;28;20624;-85
2023/03/02 00:20:10;;;;;;;40.35;20.08;;;-0.60;99.90;;;;;;4957803;28;20203;-83
2023/03/02 00:22:40;;;;;;;48.08;21.50;;;-0.60;99.90;;;;;;4959526;28;20226;-83
2023/03/02 00:25:07;;;;;;;45.00;24.55;;;-0.50;99.90;;;;;;4958669;28;20184;-85
2023/03/02 00:27:32;;;;;;;44.35;20.45;;;-0.40;99.90;;;;;;4958826;28;20200;-83
2023/03/02 00:29:58;;;;;;;42.93;21.30;;;-0.40;99.90;;;;;;4969390;28;20208;-82
2023/03/02 00:32:24;;;;;;;42.40;20.50;;;-0.30;99.90;;;;;;4972176;28;20179;-84
2023/03/02 00:34:50;;;;;;;43.67;20.15;;;-0.30;99.90;;;;;;4975988;28;20184;-82
2023/03/02 00:37:15;;;;;;;48.83;21.80;;;-0.40;99.90;;;;;;4956824;28;20247;-84
2023/03/02 00:39:41;;;;;;;40.43;20.67;;;-0.50;99.90;;;;;;4970772;28;21222;-83
2023/03/02 00:42:07;;;;;;;42.07;21.67;;;-0.50;99.90;;;;;;4974243;28;20214;-86
2023/03/02 00:44:32;;;;;;;49.17;21.30;;;-0.50;99.90;;;;;;4972301;28;20188;-84
2023/03/02 00:46:58;;;;;;;42.60;20.27;;;-0.50;99.90;;;;;;4973932;28;20448;-82
2023/03/02 00:49:24;;;;;;;46.90;21.93;;;-0.40;99.90;;;;;;4970245;28;20223;-84
2023/03/02 00:51:49;;;;;;;48.07;22.70;;;-0.40;99.90;;;;;;4960077;28;20244;-83
2023/03/02 00:54:15;;;;;;;37.50;20.50;;;-0.50;99.90;;;;;;4960038;28;20656;-84
2023/03/02 00:56:41;;;;;;;60.47;27.60;;;-0.80;99.90;;;;;;4960332;28;20283;-82
2023/03/02 00:59:25;;;;;;;49.47;22.77;;;-0.50;99.90;;;;;;4981971;28;20219;-82
2023/03/02 01:01:56;;;;;;;47.85;22.60;;;-0.50;99.90;;;;;;4964716;28;20187;-84
2023/03/02 01:04:28;;;;;;;47.00;22.23;;;-0.50;99.90;;;;;;4969171;28;20191;-85
2023/03/02 01:06:59;;;;;;;54.35;24.25;;;-0.50;99.90;;;;;;4968461;28;20198;-84
2023/03/02 01:09:24;;;;;;;52.38;23.10;;;-0.40;99.90;;;;;;4961783;28;20319;-82
2023/03/02 01:11:51;;;;;;;45.80;22.60;;;-0.40;99.90;;;;;;4959655;28;20307;-82
2023/03/02 01:14:17;;;;;;;48.88;23.50;;;-0.40;99.90;;;;;;4956196;28;20196;-83
2023/03/02 01:16:43;;;;;;;57.15;23.75;;;-0.40;99.90;;;;;;4958525;28;20187;-83
2023/03/02 01:19:09;;;;;;;36.07;20.70;;;-0.40;99.90;;;;;;4960123;28;20207;-84
2023/03/02 01:21:34;;;;;;;50.50;26.17;;;-0.50;99.90;;;;;;4956658;28;20450;-84
2023/03/02 01:24:00;;;;;;;53.70;24.20;;;-0.50;99.90;;;;;;4969316;28;20554;-85
2023/03/02 01:26:25;;;;;;;47.47;22.97;;;-0.60;99.90;;;;;;4975884;28;20179;-83
2023/03/02 01:28:54;;;;;;;47.00;23.03;;;-0.60;99.90;;;;;;4962541;28;20913;-84
2023/03/02 01:31:20;;;;;;;56.08;23.45;;;-0.60;99.90;;;;;;4961518;28;20443;-82
2023/03/02 01:33:46;;;;;;;47.10;21.08;;;-0.60;99.90;;;;;;4972046;28;20968;-84
2023/03/02 01:36:12;;;;;;;54.57;23.67;;;-0.70;99.90;;;;;;4958584;28;20188;-84
2023/03/02 01:38:37;;;;;;;42.80;23.60;;;-0.80;99.90;;;;;;4969412;28;20214;-84
2023/03/02 01:41:03;;;;;;;47.53;22.63;;;-0.60;99.90;;;;;;4974798;28;20238;-82
2023/03/02 01:43:29;;;;;;;45.33;22.33;;;-0.60;99.90;;;;;;4977316;28;20183;-82
2023/03/02 01:46:15;;;;;;;42.80;21.07;;;-0.70;99.90;;;;;;4982526;28;20180;-85
2023/03/02 01:49:04;;;;;;;43.83;22.67;;;-0.80;99.90;;;;;;4974018;28;20703;-84
2023/03/02 01:51:33;;;;;;;41.42;21.85;;;-0.80;99.90;;;;;;4963220;28;20190;-82
2023/03/02 01:54:07;;;;;;;43.55;20.80;;;-0.80;99.90;;;;;;4975721;28;20212;-82
2023/03/02 01:56:36;;;;;;;48.67;22.90;;;-0.80;99.90;;;;;;4973423;28;20180;-82
2023/03/02 01:59:06;;;;;;;51.60;23.45;;;-0.80;99.90;;;;;;4976162;28;20326;-83
2023/03/02 02:01:34;;;;;;;47.20;22.15;;;-0.70;99.90;;;;;;4965386;28;20520;-83
2023/03/02 02:04:01;;;;;;;47.03;22.02;;;-0.60;99.90;;;;;;4970290;28;20728;-85
2023/03/02 02:06:39;;;;;;;44.60;24.02;;;-0.60;99.90;;;;;;4967780;28;20309;-82
2023/03/02 02:09:09;;;;;;;46.40;22.40;;;-0.50;99.90;;;;;;4976989;28;20223;-82
2023/03/02 02:11:35;;;;;;;44.85;23.10;;;-0.60;99.90;;;;;;4987891;28;20184;-83
2023/03/02 02:14:02;;;;;;;43.33;20.60;;;-0.60;99.90;;;;;;4965853;28;20211;-81
2023/03/02 02:16:30;;;;;;;41.88;21.50;;;-0.50;99.90;;;;;;4985116;28;20195;-83
2023/03/02 02:18:56;;;;;;;45.63;22.52;;;0.20;99.90;;;;;;4970328;28;20227;-83
2023/03/02 02:21:23;;;;;;;54.43;21.30;;;-0.70;99.90;;;;;;4977106;28;20184;-84
2023/03/02 02:24:21;;;;;;;46.38;21.05;;;-0.70;99.90;;;;;;4980759;28;20186;-84
2023/03/02 02:26:53;;;;;;;44.88;21.85;;;-0.80;99.90;;;;;;4960846;28;20203;-85
2023/03/02 02:29:36;;;;;;;53.88;22.77;;;-0.80;99.90;;;;;;4962889;28;20207;-87
2023/03/02 02:32:22;;;;;;;44.85;21.73;;;-0.90;99.90;;;;;;4960226;28;20703;-84
2023/03/02 02:35:01;;;;;;;46.78;24.52;;;-0.90;99.90;;;;;;4962911;28;20215;-82
2023/03/02 02:37:40;;;;;;;49.35;23.77;;;-1.00;99.90;;;;;;4957609;28;20231;-84
2023/03/02 02:40:14;;;;;;;49.45;23.45;;;-0.80;99.90;;;;;;4956092;28;20207;-83
2023/03/02 02:42:46;;;;;;;47.65;20.60;;;-0.80;99.90;;;;;;4963053;28;20184;-82
2023/03/02 02:45:24;;;;;;;48.17;21.13;;;-0.80;99.90;;;;;;4956943;28;20179;-85
2023/03/02 02:47:51;;;;;;;51.70;23.42;;;-0.90;99.90;;;;;;4973749;28;20275;-83
2023/03/02 02:50:21;;;;;;;48.38;22.20;;;-1.00;99.90;;;;;;4973555;28;20218;-83
2023/03/02 02:52:52;;;;;;;44.97;21.70;;;-1.00;99.90;;;;;;4960539;28;20195;-82
2023/03/02 02:55:21;;;;;;;56.38;20.63;;;-1.00;99.90;;;;;;4963649;28;20184;-85
2023/03/02 02:57:47;;;;;;;41.45;21.77;;;-0.90;99.90;;;;;;4982479;28;20286;-81
2023/03/02 03:00:19;;;;;;;46.15;20.67;;;-0.90;99.90;;;;;;4969068;28;20212;-83
2023/03/02 03:02:49;;;;;;;44.08;21.55;;;-0.90;99.90;;;;;;4966809;28;20200;-85
2023/03/02 03:05:16;;;;;;;48.25;22.65;;;-0.90;99.90;;;;;;4967046;28;20188;-81
2023/03/02 03:07:41;;;;;;;38.33;19.63;;;-0.90;99.90;;;;;;4974567;28;20761;-87
2023/03/02 03:10:33;;;;;;;48.10;20.23;;;-1.00;99.90;;;;;;4959566;28;20231;-82
2023/03/02 03:13:00;;;;;;;48.75;22.27;;;-1.10;99.90;;;;;;4982202;28;20454;-83
2023/03/02 03:15:25;;;;;;;47.22;24.38;;;-1.10;99.90;;;;;;4962236;28;20282;-84
2023/03/02 03:17:55;;;;;;;46.57;20.90;;;-1.20;99.90;;;;;;4963829;28;20294;-82
2023/03/02 03:20:22;;;;;;;43.60;21.38;;;-1.30;99.90;;;;;;4962175;28;20354;-82
2023/03/02 03:22:48;;;;;;;45.67;23.25;;;-1.30;99.90;;;;;;4959787;28;20188;-83
2023/03/02 03:25:14;;;;;;;54.60;21.47;;;-0.80;99.90;;;;;;4973258;28;20208;-84
2023/03/02 03:27:41;;;;;;;48.03;21.02;;;-1.50;99.90;;;;;;4973734;28;20661;-83
2023/03/02 03:30:09;;;;;;;44.38;22.08;;;-1.60;99.90;;;;;;4965337;28;20208;-83
2023/03/02 03:32:35;;;;;;;49.70;23.27;;;-1.70;99.90;;;;;;4967834;28;20195;-81
2023/03/02 03:35:01;;;;;;;42.30;21.17;;;-1.70;99.90;;;;;;4993954;28;20188;-83
2023/03/02 03:37:27;;;;;;;44.80;22.67;;;-1.70;99.90;;;;;;4974883;28;20297;-82
2023/03/02 03:39:52;;;;;;;47.43;21.70;;;-1.60;99.90;;;;;;4949768;28;20207;-85
2023/03/02 03:42:18;;;;;;;43.87;22.60;;;;;;;;;;4953664;28;20184;-83
2023/03/02 03:44:44;;;;;;;50.05;24.15;;;-1.60;99.90;;;;;;4974887;28;20243;-82
2023/03/02 03:47:09;;;;;;;50.50;24.23;;;;;;;;;;4963305;28;21284;-84
2023/03/02 03:49:35;;;;;;;57.80;24.50;;;-1.50;99.90;;;;;;4973887;28;20791;-83
2023/03/02 03:52:02;;;;;;;49.67;23.00;;;-1.30;99.90;;;;;;4960934;28;20938;-84
2023/03/02 03:54:28;;;;;;;43.67;22.63;;;-1.30;99.90;;;;;;4978085;28;20442;-86
2023/03/02 03:56:53;;;;;;;50.37;21.87;;;-1.40;99.90;;;;;;4963766;28;20184;-84
2023/03/02 03:59:22;;;;;;;50.30;22.77;;;-1.30;99.90;;;;;;4959008;28;20208;-86
2023/03/02 04:01:52;;;;;;;52.97;22.00;;;-1.40;99.90;;;;;;4969681;28;20250;-83
2023/03/02 04:04:32;;;;;;;46.58;22.17;;;-1.40;99.90;;;;;;4973551;28;20191;-84
2023/03/02 04:06:58;;;;;;;46.40;21.40;;;-1.40;99.90;;;;;;4958923;28;20326;-85
2023/03/02 04:09:25;;;;;;;49.85;21.92;;;-1.40;99.90;;;;;;4957528;28;20389;-86
2023/03/02 04:11:52;;;;;;;43.92;22.52;;;-1.40;99.90;;;;;;4959876;28;20180;-82
2023/03/02 04:14:20;;;;;;;51.35;24.90;;;-1.40;99.90;;;;;;4980352;28;20180;-79
2023/03/02 04:16:46;;;;;;;46.22;21.60;;;-1.50;99.90;;;;;;4985562;28;21005;-83
2023/03/02 04:19:13;;;;;;;52.97;23.40;;;-1.40;99.90;;;;;;4954043;28;20742;-83
2023/03/02 04:21:44;;;;;;;41.83;21.80;;;-1.40;99.90;;;;;;4955559;28;20180;-82
2023/03/02 04:24:11;;;;;;;49.60;25.30;;;-1.40;99.90;;;;;;4957813;28;20679;-83
2023/03/02 04:26:39;;;;;;;43.97;22.70;;;-1.40;99.90;;;;;;4950040;28;20191;-84
2023/03/02 04:29:05;;;;;;;48.33;22.80;;;-1.50;99.90;;;;;;4968819;28;20207;-83
2023/03/02 04:31:31;;;;;;;57.33;23.50;;;-1.50;99.90;;;;;;4963513;28;20277;-84
2023/03/02 04:33:58;;;;;;;44.63;21.70;;;-1.50;99.90;;;;;;4947497;28;20447;-80
2023/03/02 04:36:24;;;;;;;54.30;22.60;;;-1.60;99.90;;;;;;4966700;28;20187;-83
2023/03/02 04:38:50;;;;;;;53.53;23.10;;;-1.60;99.90;;;;;;4956038;28;20306;-82
2023/03/02 04:41:16;;;;;;;56.28;23.83;;;-1.60;99.90;;;;;;4958951;28;22137;-83
2023/03/02 04:43:42;;;;;;;40.63;21.67;;;-1.60;99.90;;;;;;4950826;28;20184;-82
2023/03/02 04:46:12;;;;;;;51.40;20.30;;;-1.50;99.90;;;;;;4956661;28;20752;-81
2023/03/02 04:48:37;;;;;;;41.28;20.25;;;-1.60;99.90;;;;;;4958195;28;20459;-84
2023/03/02 04:51:03;;;;;;;45.63;22.10;;;-1.70;99.90;;;;;;4968197;28;20187;-85
2023/03/02 04:53:28;;;;;;;47.70;22.53;;;-1.70;99.90;;;;;;4951724;28;20207;-81
2023/03/02 04:55:54;;;;;;;50.63;23.07;;;-1.80;99.90;;;;;;4970674;28;20222;-82
2023/03/02 04:58:20;;;;;;;46.83;20.60;;;-1.80;99.90;;;;;;4982591;28;20336;-82
2023/03/02 05:00:45;;;;;;;46.90;22.70;;;-1.80;99.90;;;;;;4968294;28;20192;-85
2023/03/02 05:03:11;;;;;;;48.43;21.90;;;-1.90;99.90;;;;;;4957750;28;20231;-84
2023/03/02 05:05:36;;;;;;;49.90;23.67;;;-2.00;99.90;;;;;;4948768;28;20574;-83
2023/03/02 05:08:02;;;;;;;44.10;20.63;;;-1.90;99.90;;;;;;4951580;28;20713;-86
2023/03/02 05:10:28;;;;;;;54.93;24.10;;;-2.00;99.90;;;;;;4951159;28;20270;-81
2023/03/02 05:12:56;;;;;;;48.13;20.17;;;-2.00;99.90;;;;;;4960013;28;20187;-84
2023/03/02 05:15:34;;;;;;;53.20;24.45;;;-2.00;99.90;;;;;;4953295;28;20195;-82
2023/03/02 05:18:00;;;;;;;41.95;21.35;;;-2.00;99.90;;;;;;4949608;28;20215;-82
2023/03/02 05:20:30;;;;;;;53.20;22.20;;;-2.10;99.90;;;;;;4966478;28;20192;-82
2023/03/02 05:23:07;;;;;;;45.38;21.50;;;-2.10;99.90;;;;;;4951183;28;20483;-86
2023/03/02 05:25:35;;;;;;;46.80;21.65;;;-2.20;99.90;;;;;;4957230;28;20279;-81
2023/03/02 05:28:01;;;;;;;50.30;22.90;;;-2.10;99.90;;;;;;4961147;28;20184;-80
2023/03/02 05:30:27;;;;;;;49.80;22.37;;;-2.10;99.90;;;;;;4963468;28;20206;-84
2023/03/02 05:32:53;;;;;;;53.65;23.02;;;-2.20;99.90;;;;;;4943974;28;20454;-84
2023/03/02 05:35:20;;;;;;;49.88;23.83;;;-2.10;99.90;;;;;;4950339;28;20190;-86
2023/03/02 05:37:46;;;;;;;53.78;23.05;;;-2.20;99.90;;;;;;4961086;28;20220;-84
2023/03/02 05:40:15;;;;;;;49.57;22.13;;;-2.20;99.90;;;;;;4963892;28;20414;-83
2023/03/02 05:42:42;;;;;;;46.58;23.20;;;-2.20;99.90;;;;;;4952567;28;20944;-84
2023/03/02 05:45:12;;;;;;;56.10;24.15;;;-2.20;99.90;;;;;;4964550;28;20226;-83
2023/03/02 05:47:38;;;;;;;57.20;25.23;;;-2.20;99.90;;;;;;4969850;28;20196;-84
2023/03/02 05:50:03;;;;;;;56.07;23.60;;;-2.20;99.90;;;;;;4968882;28;20281;-82
2023/03/02 05:52:29;;;;;;;48.00;23.47;;;-2.20;99.90;;;;;;4967773;28;20263;-82
2023/03/02 05:54:54;;;;;;;47.70;22.60;;;-2.20;99.90;;;;;;4980588;28;20439;-84
2023/03/02 05:57:20;;;;;;;52.33;23.53;;;-2.20;99.90;;;;;;4970786;28;20809;-83
2023/03/02 05:59:46;;;;;;;46.87;21.60;;;-2.10;99.90;;;;;;4972111;28;20283;-83
2023/03/02 06:02:12;;;;;;;55.57;25.00;;;-2.20;99.90;;;;;;4981156;28;20190;-81
2023/03/02 06:04:41;;;;;;;52.05;24.38;;;-2.10;99.90;;;;;;4966098;28;20423;-85
2023/03/02 06:07:11;;;;;;;52.45;23.23;;;-2.10;99.90;;;;;;4968811;28;20225;-84
2023/03/02 06:09:40;;;;;;;50.75;22.58;;;-2.10;99.90;;;;;;4968895;28;20262;-84
2023/03/02 06:12:07;;;;;;;53.78;25.10;;;-2.10;99.90;;;;;;4973814;28;20191;-79
2023/03/02 06:14:33;;;;;;;45.88;21.80;;;-2.00;99.90;;;;;;4982969;28;20244;-84
2023/03/02 06:16:59;;;;;;;44.72;20.95;;;-1.90;99.90;;;;;;4981777;28;20195;-81
2023/03/02 06:19:24;;;;;;;63.07;24.97;;;-1.90;99.90;;;;;;4974781;28;20226;-87
2023/03/02 06:21:50;;;;;;;48.13;23.20;;;-1.80;99.90;;;;;;4994150;28;20676;-84
2023/03/02 06:24:15;;;;;;;55.33;23.37;;;-1.70;99.90;;;;;;4978542;28;20186;-83
2023/03/02 06:26:41;;;;;;;56.47;26.37;;;-1.60;99.90;;;;;;4977039;28;20192;-83
2023/03/02 06:29:07;;;;;;;50.87;22.40;;;-1.50;99.90;;;;;;4994712;28;20204;-83
2023/03/02 06:31:33;;;;;;;45.63;22.43;;;-1.40;99.90;;;;;;4975140;28;20234;-86
2023/03/02 06:33:58;;;;;;;46.22;21.73;;;-1.20;99.90;;;;;;4975357;28;20250;-84
2023/03/02 06:36:24;;;;;;;49.27;21.53;;;-1.10;99.90;;;;;;4968940;28;20188;-84
2023/03/02 06:38:49;;;;;;;57.40;24.93;;;-1.10;99.90;;;;;;4973674;28;20222;-83
2023/03/02 06:41:15;;;;;;;51.43;24.30;;;-1.10;99.90;;;;;;4983344;28;20204;-82
2023/03/02 06:43:41;;;;;;;50.70;23.43;;;-0.90;99.90;;;;;;4984311;28;20247;-82
2023/03/02 06:46:07;;;;;;;46.77;23.60;;;-0.60;99.90;;;;;;4963307;28;20463;-85
2023/03/02 06:48:32;;;;;;;57.00;25.13;;;-0.10;99.90;;;;;;4965196;28;20486;-83
2023/03/02 06:50:58;;;;;;;44.60;22.20;;;0.80;99.90;;;;;;4965340;28;20864;-83
2023/03/02 06:53:24;;;;;;;48.10;21.10;;;1.80;99.90;;;;;;4964907;28;20206;-82
2023/03/02 06:55:50;;;;;;;47.53;23.70;;;2.80;99.90;;;;;;4979952;28;20199;-82
2023/03/02 06:58:16;;;;;;;40.00;21.45;;;3.80;99.90;;;;;;4958913;28;20243;-84
2023/03/02 07:00:41;;;;;;;36.97;18.13;;;4.90;99.90;;;;;;4978230;28;20211;-82
2023/03/02 07:03:07;;;;;;;37.77;20.23;;;;;;;;;;4968013;28;20430;-83
2023/03/02 07:05:34;;;;;;;37.13;19.50;;;7.00;99.90;;;;;;4963471;28;20620;-85
2023/03/02 07:08:00;;;;;;;35.83;19.45;;;7.50;99.90;;;;;;4962703;28;20455;-84
2023/03/02 07:10:26;;;;;;;34.70;19.67;;;8.50;99.90;;;;;;4979729;28;20200;-84
2023/03/02 07:12:52;;;;;;;37.63;20.07;;;9.30;99.90;;;;;;4967871;28;20238;-81
2023/03/02 07:15:19;;;;;;;31.92;20.00;;;10.10;99.90;;;;;;4966428;28;20546;-83
2023/03/02 07:17:45;;;;;;;39.28;19.73;;;11.10;99.90;;;;;;4975688;28;20253;-81
2023/03/02 07:20:13;;;;;;;37.53;19.10;;;11.80;99.90;;;;;;4966444;28;20219;-81
2023/03/02 07:22:40;;;;;;;35.38;21.10;;;12.70;99.90;;;;;;4963848;28;20438;-83
2023/03/02 07:25:06;;;;;;;39.05;22.10;;;13.50;99.70;;;;;;4964344;28;20311;-83
2023/03/02 07:27:32;;;;;;;45.90;24.85;;;14.00;94.20;;;;;;4979282;28;20231;-80
2023/03/02 07:29:57;;;;;;;39.37;20.90;;;14.20;91.90;;;;;;4967147;28;20212;-82
2023/03/02 07:32:23;;;;;;;38.80;23.07;;;14.90;91.30;;;;;;4965058;28;20177;-79
2023/03/02 07:34:48;;;;;;;36.00;21.10;;;15.60;88.40;;;;;;4975933;28;20200;-83
2023/03/02 07:37:14;;;;;;;36.30;19.13;;;16.20;79.50;;;;;;4965333;28;20622;-82
2023/03/02 07:39:40;;;;;;;36.93;19.87;;;15.80;72.70;;;;;;4963366;28;20208;-82
2023/03/02 07:42:07;;;;;;;30.33;19.37;;;15.20;73.70;;;;;;4972924;28;20184;-82
2023/03/02 07:44:33;;;;;;;36.00;19.30;;;15.10;74.80;;;;;;4977092;28;20181;-82
2023/03/02 07:46:59;;;;;;;34.67;21.53;;;15.80;74.70;;;;;;4962523;28;20469;-83
2023/03/02 07:49:24;;;;;;;35.67;20.20;;;16.40;72.70;;;;;;4971772;28;20231;-82
2023/03/02 07:51:50;;;;;;;35.70;21.00;;;16.10;68.40;;;;;;4973998;28;20273;-77
2023/03/02 07:54:15;;;;;;;31.83;20.73;;;15.80;67.00;;;;;;4973392;28;21714;-82
2023/03/02 07:56:41;;;;;;;34.33;19.53;;;16.00;67.80;;;;;;4988467;28;20196;-85
2023/03/02 07:59:06;;;;;;;32.47;19.83;;;16.80;68.20;;;;;;4963324;28;20286;-82
2023/03/02 08:01:32;;;;;;;35.57;20.43;;;16.80;61.70;;;;;;4963527;28;20187;-85
2023/03/02 08:03:57;;;;;;;31.67;18.87;;;17.00;63.30;;;;;;4975202;28;20897;-82
2023/03/02 08:06:23;;;;;;;31.17;19.60;;;17.50;62.10;;;;;;4964836;28;20250;-82
2023/03/02 08:08:49;;;;;;;37.53;20.50;;;17.20;61.60;;;;;;4966178;28;20212;-83
2023/03/02 08:11:17;;;;;;;34.17;21.13;;;17.60;61.40;;;;;;4962348;28;21119;-81
2023/03/02 08:13:43;;;;;;;30.77;21.20;;;18.20;60.00;;;;;;4969775;28;20306;-83
2023/03/02 08:16:11;;;;;;;34.87;19.67;;;18.80;59.50;;;;;;4963094;28;20439;-82
2023/03/02 08:18:37;;;;;;;35.97;19.60;;;18.90;56.70;;;;;;4967097;28;21081;-84
2023/03/02 08:21:09;;;;;;;35.87;18.63;;;17.70;55.50;;;;;;4965927;28;20963;-81
2023/03/02 08:23:35;;;;;;;31.97;19.70;;;17.20;57.10;;;;;;4970458;28;20860;-81
2023/03/02 08:26:00;;;;;;;31.30;19.00;;;17.40;57.90;;;;;;4982989;28;20509;-83
2023/03/02 08:28:26;;;;;;;35.00;19.07;;;17.40;57.60;;;;;;4969250;28;20210;-82
2023/03/02 08:31:00;;;;;;;32.97;18.43;;;17.20;56.40;;;;;;4980078;28;20556;-83
2023/03/02 08:33:26;;;;;;;30.50;19.80;;;15.40;57.90;;;;;;4962043;28;20711;-83
2023/03/02 08:35:56;;;;;;;33.90;18.55;;;14.00;60.20;;;;;;4979653;28;20454;-85
2023/03/02 08:38:22;;;;;;;36.42;19.40;;;13.40;63.00;;;;;;4967272;28;20203;-82
2023/03/02 08:40:48;;;;;;;34.72;18.70;;;13.90;64.40;;;;;;4982262;28;20280;-82
2023/03/02 08:43:13;;;;;;;31.17;17.63;;;14.10;63.70;;;;;;4966671;28;20315;-84
2023/03/02 08:45:39;;;;;;;33.73;18.57;;;13.70;63.90;;;;;;4968895;28;20207;-83
2023/03/02 08:48:04;;;;;;;30.63;17.97;;;12.80;65.20;;;;;;4965975;28;20814;-84
2023/03/02 08:50:30;;;;;;;29.43;17.30;;;12.70;65.70;;;;;;4960835;28;20184;-83
2023/03/02 08:52:56;;;;;;;32.37;18.53;;;;;;;;;;4964908;28;20713;-85
2023/03/02 08:55:22;;;;;;;30.93;16.87;;;;;;;;;;4966279;28;20956;-82
2023/03/02 08:57:47;;;;;;;30.33;17.83;;;12.70;67.80;;;;;;4983269;28;20569;-83
2023/03/02 09:00:15;;;;;;;32.33;16.07;;;12.50;69.50;;;;;;4963315;28;20477;-84
2023/03/02 09:02:40;;;;;;;28.92;16.60;;;12.60;70.00;;;;;;4981769;28;20188;-84
2023/03/02 09:05:06;;;;;;;32.13;18.03;;;12.70;69.10;;;;;;4997930;28;20192;-81
2023/03/02 09:07:32;;;;;;;29.90;15.33;;;13.10;68.50;;;;;;4973193;28;20187;-84
2023/03/02 09:09:57;;;;;;;33.10;17.43;;;13.40;66.70;;;;;;4978652;28;20473;-84
2023/03/02 09:12:24;;;;;;;30.77;16.83;;;13.10;67.30;;;;;;4969514;28;20192;-85
2023/03/02 09:14:49;;;;;;;29.92;16.58;;;13.40;68.50;;;;;;4965781;28;20217;-83
2023/03/02 09:17:16;;;;;;;29.30;16.40;;;13.40;68.00;;;;;;4966925;28;20188;-86
2023/03/02 09:19:41;;;;;;;38.45;18.67;;;13.40;68.20;;;;;;4975409;28;20346;-82
2023/03/02 09:22:07;;;;;;;32.70;16.67;;;13.60;67.10;;;;;;4968915;28;20205;-86
2023/03/02 09:24:34;;;;;;;32.05;16.13;;;13.60;67.20;;;;;;4963909;28;20656;-83
2023/03/02 09:27:00;;;;;;;30.88;16.80;;;14.60;69.00;;;;;;4971470;28;20214;-85
2023/03/02 09:29:26;;;;;;;31.23;15.90;;;13.60;67.70;;;;;;4963700;28;20223;-84
2023/03/02 09:31:52;;;;;;;25.70;14.97;;;;;;;;;;4961249;28;20443;-83
2023/03/02 09:34:18;;;;;;;30.93;18.50;;;;;;;;;;4974606;28;20188;-84
2023/03/02 09:36:44;;;;;;;28.10;15.50;;;;;;;;;;4961460;28;20447;-84
2023/03/02 09:39:11;;;;;;;28.33;16.07;;;;;;;;;;4966190;28;20537;-85
2023/03/02 09:42:09;;;;;;;30.33;15.93;;;13.20;67.60;;;;;;4982368;28;20436;-85
2023/03/02 09:45:02;;;;;;;32.10;18.13;;;13.80;70.10;;;;;;4979079;28;20863;-86
2023/03/02 09:47:45;;;;;;;34.50;16.20;;;13.90;71.00;;;;;;4965494;28;20454;-88
2023/03/02 09:50:40;;;;;;;33.35;17.35;;;14.60;66.40;;;;;;4980758;28;20467;-83
2023/03/02 09:53:05;;;;;;;36.70;18.63;;;14.00;67.50;;;;;;4966341;28;20192;-85
2023/03/02 09:55:34;;;;;;;24.93;16.50;;;13.70;69.20;;;;;;4972083;28;20248;-85
2023/03/02 09:58:04;;;;;;;28.45;16.67;;;13.90;68.00;;;;;;4980179;28;20239;-84
2023/03/02 10:00:36;;;;;;;22.30;14.05;;;13.30;67.30;;;;;;4964558;28;20268;-85
2023/03/02 10:03:10;;;;;;;29.92;16.17;;;13.30;68.10;;;;;;4969162;28;20694;-84
2023/03/02 10:05:40;;;;;;;29.77;16.95;;;13.10;70.00;;;;;;4964338;28;20204;-84
2023/03/02 10:08:19;;;;;;;25.15;15.40;;;13.00;69.90;;;;;;4970112;28;20252;-86
2023/03/02 10:10:56;;;;;;;30.88;16.42;;;12.90;70.70;;;;;;4992634;28;20676;-86
2023/03/02 10:13:39;;;;;;;28.50;16.40;;;12.30;72.30;;;;;;4986161;28;20196;-86
2023/03/02 10:16:31;;;;;;;29.50;16.48;;;11.40;74.90;;;;;;4986132;28;20250;-81
2023/03/02 10:19:07;;;;;;;26.98;16.50;;;10.20;77.00;;;;;;4976048;28;20239;-79
2023/03/02 10:21:41;;;;;;;27.92;16.13;;;9.90;81.30;;;;;;4975144;28;20212;-84
2023/03/02 10:24:14;;;;;;;31.00;16.00;;;9.50;83.60;;;;;;4984352;28;20189;-78
2023/03/02 10:26:43;;;;;;;30.83;15.88;;;9.40;86.90;;;;;;4987056;28;20209;-80
2023/03/02 10:29:11;;;;;;;32.65;17.33;;;9.50;90.70;;;;;;4978502;28;20231;-82
2023/03/02 10:31:39;;;;;;;30.25;15.60;;;9.60;90.00;;;;;;4982889;28;20215;-80
2023/03/02 10:34:09;;;;;;;35.03;16.17;;;9.30;89.60;;;;;;4990497;28;20505;-79
2023/03/02 10:36:42;;;;;;;28.88;17.08;;;9.20;90.50;;;;;;4973452;28;20187;-85
2023/03/02 10:39:16;;;;;;;31.00;16.67;;;9.20;90.50;;;;;;4987973;28;20227;-85
2023/03/02 10:41:56;;;;;;;33.05;15.85;;;9.10;91.20;;;;;;4974027;28;20176;-83
2023/03/02 10:44:38;;;;;;;29.30;17.80;;;9.20;90.90;;;;;;4968606;28;20194;-84
2023/03/02 10:47:06;;;;;;;29.30;16.92;;;9.30;92.20;;;;;;4980253;28;20192;-83
2023/03/02 10:49:40;;;;;;;33.53;15.70;;;9.70;92.60;;;;;;4967995;28;20192;-83
2023/03/02 10:52:13;;;;;;;28.33;17.35;;;9.40;92.10;;;;;;4979127;28;20261;-84
2023/03/02 10:54:39;;;;;;;25.73;14.52;;;9.60;92.70;;;;;;4970764;28;20567;-82
2023/03/02 10:57:33;;;;;;;33.87;18.90;;;9.60;93.00;;;;;;4964248;28;20263;-85
2023/03/02 11:00:04;;;;;;;35.95;16.90;;;9.60;91.80;;;;;;4967604;28;23399;-78
2023/03/02 11:02:36;;;;;;;26.45;14.25;;;9.40;92.10;;;;;;4969261;28;20180;-81
2023/03/02 11:05:27;;;;;;;31.10;15.85;;;9.40;92.40;;;;;;4966563;28;20183;-84
2023/03/02 11:08:00;;;;;;;30.10;16.40;;;9.50;92.50;;;;;;4966038;28;20193;-83
2023/03/02 11:10:30;;;;;;;33.08;16.17;;;9.60;93.70;;;;;;4964645;28;20258;-80
2023/03/02 11:12:57;;;;;;;33.70;16.25;;;9.80;93.70;;;;;;4965124;28;20195;-83
2023/03/02 11:15:31;;;;;;;33.45;16.77;;;9.80;93.20;;;;;;4968032;28;20298;-82
2023/03/02 11:18:17;;;;;;;29.23;14.85;;;9.80;93.50;;;;;;4973094;28;20204;-79
2023/03/02 11:20:46;;;;;;;45.90;17.65;;;10.00;92.70;;;;;;4982752;28;20755;-83
2023/03/02 11:23:53;;;;;;;26.17;14.50;;;9.90;93.00;;;;;;4967014;28;20262;-82
2023/03/02 11:26:26;;;;;;;26.70;14.75;;;10.00;92.20;;;;;;4968980;28;20207;-81
2023/03/02 11:29:04;;;;;;;31.60;16.00;;;10.10;93.50;;;;;;4960357;28;20207;-81
2023/03/02 11:31:49;;;;;;;30.15;16.48;;;10.10;92.30;;;;;;4968272;28;20187;-83
2023/03/02 11:34:20;;;;;;;37.65;16.23;;;10.30;92.50;;;;;;4966120;28;20212;-85
2023/03/02 11:37:04;;;;;;;29.77;16.20;;;10.50;93.50;;;;;;4966984;28;20192;-82
2023/03/02 11:39:47;;;;;;;29.95;16.77;;;10.40;93.70;;;;;;4960080;28;20254;-80
2023/03/02 11:42:32;;;;;;;32.30;17.20;;;10.40;93.10;;;;;;4985828;28;20204;-84
2023/03/02 11:45:02;;;;;;;29.35;16.58;;;10.50;92.10;;;;;;4960540;28;20196;-84
2023/03/02 11:47:31;;;;;;;28.70;15.80;;;10.70;92.20;;;;;;4981366;28;20258;-82
2023/03/02 11:50:03;;;;;;;31.08;15.60;;;10.50;92.20;;;;;;4975812;28;20224;-80
2023/03/02 11:52:32;;;;;;;36.20;17.70;;;10.10;92.00;;;;;;4967117;28;20188;-82
2023/03/02 11:55:04;;;;;;;26.95;14.60;;;10.10;92.90;;;;;;4961359;28;21038;-81
2023/03/02 11:57:42;;;;;;;25.85;15.02;;;10.20;94.80;;;;;;4960987;28;20274;-81
2023/03/02 12:00:23;;;;;;;27.73;14.75;;;10.60;92.90;;;;;;4959271;28;20200;-83
2023/03/02 12:03:14;;;;;;;29.52;15.38;;;10.60;92.20;;;;;;4978460;28;20301;-83
2023/03/02 12:05:42;;;;;;;28.75;15.38;;;10.60;93.10;;;;;;4964282;28;20192;-82
2023/03/02 12:08:14;;;;;;;31.38;16.55;;;10.80;93.50;;;;;;4975651;28;20757;-81
2023/03/02 12:10:42;;;;;;;30.50;16.20;;;10.90;93.80;;;;;;4968425;28;20187;-83
2023/03/02 12:13:21;;;;;;;36.40;16.23;;;11.20;93.30;;;;;;4977587;28;20196;-82
2023/03/02 12:15:51;;;;;;;31.70;15.77;;;11.40;91.60;;;;;;4960391;28;20191;-82
2023/03/02 12:18:20;;;;;;;29.10;15.23;;;11.80;91.30;;;;;;4966237;28;20207;-84
2023/03/02 12:21:07;;;;;;;28.50;15.80;;;11.80;91.60;;;;;;4980216;28;20191;-84
2023/03/02 12:23:49;;;;;;;25.35;14.48;;;11.40;92.10;;;;;;4959562;28;20247;-83
2023/03/02 12:26:18;;;;;;;26.02;13.88;;;11.00;92.60;;;;;;4963518;28;20188;-81
2023/03/02 12:28:58;;;;;;;29.60;15.52;;;11.00;92.40;;;;;;4964769;28;23216;-81
2023/03/02 12:31:24;;;;;;;26.63;14.65;;;11.10;92.40;;;;;;4968603;28;20259;-81
2023/03/02 12:33:51;;;;;;;25.75;15.02;;;11.00;91.70;;;;;;4976654;28;20246;-81
2023/03/02 12:36:39;;;;;;;23.83;13.43;;;11.00;92.40;;;;;;4963411;28;20236;-83
2023/03/02 12:39:11;;;;;;;30.05;14.52;;;11.30;91.50;;;;;;4964573;28;20227;-83
2023/03/02 12:41:42;;;;;;;29.33;15.15;;;11.40;92.20;;;;;;4968306;28;20582;-84